Latest Weather Observations for Pirlangimpi

IDD60801

Issued at 12:51 pm CST Sunday 16 December 2018 (issued every 10 minutes, with the page automatically refreshed every 10 minutes)

About weather observations | Map of weather stations | Latest weather observations for NT | Other Formats
Station Details ID: 014142 Name: PIRLANGIMPI AIRPORT Lat: -11.40 Lon: 130.42 Height: 18.3 m
Data from the previous 72 hours. | See also: Recent months at Pirlangimpi
Date/Time
CST
Temp
°C
App
Temp
°C
Dew
Point
°C
Rel
Hum
%
Delta-T
°C
Wind Press
QNH
hPa
Press
MSL
hPa
Rain since
9am
mm
Dir  Spd
km/h
Gust
km/h
Spd
kts
Gust
kts
16/12:30pm 32.5 36.3 24.0 61 5.9 W 11 24 6 13 1007.7 1007.6 0.0
16/12:00pm 32.8 36.6 23.4 57 6.5 W 9 19 5 10 1007.8 1007.7 0.0
16/11:30am 32.6 36.4 23.5 58 6.3 WSW 9 24 5 13 1008.1 1008.0 0.0
16/11:00am 32.4 36.3 23.6 59 6.1 WSW 9 20 5 11 1008.3 1008.2 0.0
16/10:30am 31.2 35.1 23.6 64 5.3 W 9 19 5 10 1008.5 1008.4 0.0
16/10:00am 31.4 34.7 23.2 61 5.7 W 11 22 6 12 1008.7 1008.6 0.0
16/09:30am 31.0 34.0 23.4 64 5.3 WSW 13 24 7 13 1008.7 1008.6 0.0
16/09:00am 30.8 35.1 23.7 66 4.9 W 7 17 4 9 1008.3 1008.2 0.0
16/08:30am 29.9 34.5 23.8 70 4.2 WSW 6 11 3 6 1008.2 1008.1 0.0
16/08:00am 29.8 34.2 23.5 69 4.3 W 6 11 3 6 1007.9 1007.8 0.0
16/07:30am 29.1 33.9 23.5 72 3.9 W 4 9 2 5 1007.7 1007.6 0.0
16/07:00am 28.6 33.4 23.5 74 3.5 W 4 13 2 7 1007.6 1007.5 0.0
16/06:30am 28.2 32.8 23.8 77 3.0 WNW 6 11 3 6 1007.5 1007.4 0.0
16/06:00am 28.0 33.0 23.8 78 2.9 W 4 9 2 5 1007.4 1007.3 0.0
16/05:30am 28.1 33.1 23.9 78 2.9 W 4 11 2 6 1007.1 1007.0 0.0
16/05:00am 27.5 32.9 23.9 81 2.5 WNW 2 7 1 4 1006.4 1006.3 0.0
16/04:30am 27.6 32.8 23.6 79 2.8 WSW 2 6 1 3 1005.9 1005.8 0.0
16/04:00am 28.0 32.5 23.6 77 3.0 W 6 13 3 7 1005.9 1005.8 0.0
16/03:30am 27.8 32.8 23.8 79 2.8 WNW 4 9 2 5 1005.5 1005.4 0.0
16/03:00am 27.9 32.8 23.7 78 2.9 W 4 9 2 5 1005.5 1005.4 0.0
16/02:30am 27.9 32.8 23.7 78 2.9 W 4 9 2 5 1005.4 1005.3 0.0
16/02:00am 28.1 32.9 23.5 76 3.2 W 4 13 2 7 1005.8 1005.7 0.0
16/01:30am 28.2 32.5 23.3 75 3.4 WNW 6 15 3 8 1006.1 1006.0 0.0
16/01:00am 28.2 32.5 23.3 75 3.4 WNW 6 11 3 6 1006.8 1006.7 0.0
16/12:30am 28.3 32.7 23.4 75 3.4 W 6 9 3 5 1007.1 1007.0 0.0
16/12:00am 28.4 32.7 23.3 74 3.5 W 6 11 3 6 1007.3 1007.2 0.0
 
Date/Time
CST
Temp
°C
App
Temp
°C
Dew
Point
°C
Rel
Hum
%
Delta-T
°C
Wind Press
QNH
hPa
Press
MSL
hPa
Rain since
9am
mm
Dir  Spd
km/h
Gust
km/h
Spd
kts
Gust
kts
15/11:30pm 28.5 33.4 23.6 75 3.4 WSW 4 11 2 6 1007.2 1007.1 0.0
15/11:00pm 28.6 33.1 23.7 75 3.4 W 6 15 3 8 1007.1 1007.0 0.0
15/10:30pm 28.5 33.5 23.9 76 3.2 WSW 4 9 2 5 1006.9 1006.8 0.0
15/10:00pm 28.8 33.3 23.7 74 3.5 WSW 6 9 3 5 1006.7 1006.6 0.0
15/09:30pm 29.0 33.5 23.7 73 3.7 WSW 6 13 3 7 1006.3 1006.2 0.0
15/09:00pm 29.1 33.7 23.8 73 3.7 W 6 11 3 6 1006.3 1006.2 0.0
15/08:30pm 29.2 34.2 23.9 73 3.7 W 4 11 2 6 1006.1 1006.0 0.0
15/08:00pm 29.4 34.4 24.5 75 3.4 W 6 17 3 9 1005.8 1005.7 0.0
15/07:30pm 29.5 34.4 24.4 74 3.6 W 6 13 3 7 1005.4 1005.3 0.0
15/07:00pm 29.8 34.4 24.2 72 3.9 W 7 17 4 9 1005.2 1005.1 0.0
15/06:30pm 30.3 34.9 24.2 70 4.3 WSW 7 15 4 8 1004.9 1004.8 0.0
15/06:00pm 30.6 34.0 24.0 68 4.6 WSW 13 24 7 13 1004.5 1004.4 0.0
15/05:30pm 31.3 34.6 23.9 64 5.2 WSW 13 22 7 12 1004.6 1004.5 0.0
15/05:00pm 32.4 35.2 23.6 59 6.1 SW 15 28 8 15 1004.5 1004.4 0.0
15/04:30pm 32.8 36.9 24.0 60 6.2 W 9 20 5 11 1004.5 1004.4 0.0
15/04:00pm 32.9 37.4 24.6 61 5.8 WSW 9 20 5 11 1004.6 1004.5 0.0
15/03:30pm 32.9 35.8 23.8 58 6.4 WSW 15 30 8 16 1004.9 1004.8 0.0
15/03:00pm 33.0 36.9 24.2 60 6.2 W 11 24 6 13 1005.0 1004.9 0.0
15/02:30pm 32.7 36.5 24.7 62 5.6 WSW 13 32 7 17 1005.4 1005.3 0.0
15/02:00pm 32.5 36.1 23.7 59 6.1 W 11 22 6 12 1005.7 1005.6 0.0
15/01:30pm 32.9 37.0 24.6 61 5.9 W 11 22 6 12 1006.0 1005.9 0.0
15/01:00pm 33.0 37.7 25.0 63 5.7 WSW 9 17 5 9 1006.2 1006.1 0.0
15/12:30pm 32.6 37.6 25.4 66 5.1 W 9 20 5 11 1006.7 1006.6 0.0
15/12:00pm 32.5 38.1 25.8 68 4.8 WSW 7 13 4 7 1007.1 1007.0 0.0
15/11:30am 32.4 37.1 25.0 65 5.2 WSW 9 17 5 9 1007.3 1007.2 0.0
15/11:00am 33.0 37.7 25.5 64 5.3 WSW 11 24 6 13 1007.5 1007.4 0.0
15/10:30am 32.4 36.6 24.7 64 5.4 WSW 11 26 6 14 1007.7 1007.6 0.0
15/10:00am 31.3 35.1 24.7 68 4.6 WSW 13 26 7 14 1007.7 1007.6 0.0
15/09:30am 31.4 35.5 24.5 67 4.8 WSW 11 30 6 16 1007.5 1007.4 0.0
15/09:00am 31.6 36.1 25.2 69 4.5 WSW 11 24 6 13 1007.5 1007.4 0.0
15/08:30am 30.3 35.8 25.6 76 3.3 W 7 15 4 8 1007.3 1007.2 0.0
15/08:00am 30.4 36.0 25.5 75 3.5 W 6 17 3 9 1007.1 1007.0 0.0
15/07:30am 29.4 34.7 24.9 77 3.2 W 6 11 3 6 1007.1 1007.0 0.0
15/07:00am 28.8 34.0 24.8 79 2.8 W 6 11 3 6 1006.7 1006.6 0.0
15/06:30am 28.6 33.7 24.6 79 2.8 WSW 6 11 3 6 1006.0 1005.9 0.0
15/06:00am 28.8 33.9 24.6 78 2.9 WSW 6 13 3 7 1005.7 1005.6 0.0
15/05:30am 28.9 34.2 24.9 79 2.8 W 6 13 3 7 1005.3 1005.2 0.0
15/05:00am 29.1 34.2 24.9 78 2.9 WSW 7 17 4 9 1005.0 1004.9 0.0
15/04:30am 29.0 34.3 25.0 79 2.8 W 6 13 3 7 1004.9 1004.8 0.0
15/04:00am 29.0 34.1 25.0 79 2.8 WSW 7 13 4 7 1004.8 1004.7 0.0
15/03:30am 29.0 34.0 24.8 78 2.9 W 7 15 4 8 1005.0 1004.9 0.0
15/03:00am 29.0 34.2 24.8 78 2.9 WSW 6 13 3 7 1005.3 1005.2 0.0
15/02:30am 28.9 34.2 24.9 79 2.8 WSW 6 9 3 5 1005.5 1005.4 0.0
15/02:00am 29.0 34.2 24.8 78 2.9 W 6 13 3 7 1005.7 1005.6 0.0
15/01:30am 28.9 34.0 24.7 78 2.9 W 6 13 3 7 1005.9 1005.8 0.0
15/01:00am 28.8 34.1 25.0 80 2.7 WSW 6 11 3 6 1006.2 1006.1 0.0
15/12:30am 28.8 34.4 24.8 79 2.8 W 4 9 2 5 1006.4 1006.3 0.0
15/12:00am 28.7 34.2 24.7 79 2.8 W 4 7 2 4 1006.6 1006.5 0.0
 
Date/Time
CST
Temp
°C
App
Temp
°C
Dew
Point
°C
Rel
Hum
%
Delta-T
°C
Wind Press
QNH
hPa
Press
MSL
hPa
Rain since
9am
mm
Dir  Spd
km/h
Gust
km/h
Spd
kts
Gust
kts
14/11:30pm 28.9 33.9 24.5 77 3.1 WSW 6 15 3 8 1006.7 1006.6 0.0
14/11:00pm 29.0 34.1 24.6 77 3.1 W 6 13 3 7 1006.6 1006.5 0.0
14/10:30pm 29.1 33.9 24.4 76 3.3 WSW 7 13 4 7 1006.7 1006.6 0.0
14/10:00pm 29.1 33.9 24.2 75 3.4 W 6 13 3 7 1006.7 1006.6 0.0
14/09:30pm 29.1 33.9 24.4 76 3.3 W 7 15 4 8 1006.7 1006.6 0.0
14/09:00pm 29.1 33.9 24.4 76 3.3 W 7 15 4 8 1006.4 1006.3 0.0
14/08:30pm 29.2 34.0 24.5 76 3.3 W 7 13 4 7 1006.1 1006.0 0.0
14/08:00pm 29.2 34.1 24.7 77 3.1 W 7 17 4 9 1005.6 1005.5 0.0
14/07:30pm 29.2 34.2 24.5 76 3.3 WSW 6 11 3 6 1005.2 1005.1 0.0
14/07:00pm 29.4 34.1 24.3 74 3.5 WSW 7 13 4 7 1004.9 1004.8 0.0
14/06:30pm 29.7 34.0 24.3 73 3.8 WSW 9 15 5 8 1004.6 1004.5 0.0
14/06:00pm 29.8 34.4 24.7 74 3.6 WSW 9 19 5 10 1004.5 1004.4 0.0
14/05:30pm 30.1 34.2 24.5 72 3.9 W 11 24 6 13 1004.5 1004.4 0.0
14/05:00pm 30.4 34.8 24.5 70 4.1 W 9 24 5 13 1004.7 1004.6 0.0
14/04:30pm 30.9 35.6 25.0 71 4.2 WSW 9 19 5 10 1004.6 1004.5 0.0
14/04:00pm 30.8 35.2 24.4 68 4.5 W 9 19 5 10 1004.6 1004.5 0.0
14/03:30pm 30.9 34.8 24.3 68 4.6 W 11 24 6 13 1004.4 1004.3 0.0
14/03:00pm 31.2 35.3 24.6 68 4.6 WNW 11 22 6 12 1004.2 1004.1 0.0
14/02:30pm 31.5 35.7 24.1 65 5.2 NW 9 20 5 11 1004.2 1004.1 0.0
14/02:00pm 31.6 36.1 24.0 64 5.3 WNW 7 17 4 9 1004.3 1004.2 0.0
14/01:30pm 31.3 36.1 24.4 66 4.8 WNW 7 15 4 8 1004.6 1004.5 0.0
14/01:00pm 31.8 36.0 24.7 66 5.0 WNW 11 20 6 11 1005.0 1004.9 0.0
14/12:30pm 31.9 36.2 23.7 62 5.7 WNW 7 17 4 9 1005.3 1005.2 0.0
14/12:00pm 31.7 35.1 22.7 59 6.2 WNW 9 22 5 12 1005.8 1005.7 0.0
14/11:30am 31.9 36.0 23.2 60 6.0 W 7 19 4 10 1006.3 1006.2 0.0
14/11:00am 31.4 35.1 23.2 61 5.7 W 9 20 5 11 1006.6 1006.5 0.0
14/10:30am 31.1 35.1 23.7 64 5.1 WSW 9 19 5 10 1006.9 1006.8 0.0
14/10:00am 30.6 34.1 23.5 66 4.9 WSW 11 20 6 11 1007.3 1007.2 0.0
14/09:30am 30.4 34.0 23.1 65 5.0 WSW 9 22 5 12 1007.4 1007.3 0.0
14/09:00am 29.8 32.7 22.5 65 5.0 WSW 11 22 6 12 1007.3 1007.2 0.0
14/08:30am 30.0 32.9 22.4 63 5.2 SW 11 19 6 10 1007.6 1007.5 0.0
14/08:00am 29.6 33.1 22.8 67 4.6 SW 9 20 5 11 1007.6 1007.5 0.0
14/07:30am 29.1 33.6 24.0 74 3.5 WSW 7 17 4 9 1007.2 1007.1 0.0
14/07:00am 29.0 32.6 23.7 73 3.7 WSW 11 22 6 12 1006.5 1006.4 0.0
14/06:30am 29.4 33.4 23.8 72 3.9 W 9 24 5 13 1005.7 1005.6 0.0
14/06:00am 29.3 33.5 24.8 77 3.2 WNW 11 24 6 13 1005.1 1005.0 0.0
14/05:30am 29.2 33.6 25.0 78 3.0 W 11 22 6 12 1005.3 1005.2 0.0
14/05:00am 29.2 34.1 24.7 77 3.1 W 7 19 4 10 1005.3 1005.2 0.0
14/04:30am 29.2 33.6 24.5 76 3.3 W 9 17 5 9 1005.5 1005.4 0.0
14/04:00am 29.0 33.9 24.6 77 3.1 WSW 7 15 4 8 1005.7 1005.6 0.0
14/03:30am 29.0 34.1 25.0 79 2.8 WSW 7 15 4 8 1005.9 1005.8 0.0
14/03:00am 29.0 34.4 25.4 81 2.5 WSW 7 17 4 9 1005.9 1005.8 0.0
14/02:30am 29.0 34.7 25.6 82 2.4 W 6 13 3 7 1005.6 1005.5 0.0
14/02:00am 28.8 34.2 25.4 82 2.4 W 7 15 4 8 1005.5 1005.4 0.0
14/01:30am 28.8 34.5 25.6 83 2.3 W 6 13 3 7 1005.6 1005.5 0.0
14/01:00am 28.8 34.7 25.4 82 2.4 W 4 9 2 5 1006.0 1005.9 0.0
14/12:30am 28.6 34.3 25.0 81 2.5 WSW 4 7 2 4 1006.5 1006.4 0.0
14/12:00am 28.7 34.3 24.9 80 2.7 WSW 4 7 2 4 1006.9 1006.8 0.0
 
Date/Time
CST
Temp
°C
App
Temp
°C
Dew
Point
°C
Rel
Hum
%
Delta-T
°C
Wind Press
QNH
hPa
Press
MSL
hPa
Rain since
9am
mm
Dir  Spd
km/h
Gust
km/h
Spd
kts
Gust
kts
13/11:30pm 28.8 34.5 25.0 80 2.7 WSW 4 7 2 4 1006.9 1006.8 0.0
13/11:00pm 28.8 34.4 24.8 79 2.8 WSW 4 7 2 4 1006.9 1006.8 0.0
13/10:30pm 29.1 34.5 25.1 79 2.8 SW 6 11 3 6 1007.3 1007.2 0.0
13/10:00pm 29.1 34.7 24.9 78 2.9 WSW 4 6 2 3 1007.0 1006.9 0.0
13/09:30pm 29.2 34.7 24.7 77 3.2 W 4 6 2 3 1007.4 1007.3 0.0
13/09:00pm 29.2 34.7 24.7 77 3.2 WSW 4 9 2 5 1006.9 1006.8 0.0
13/08:30pm 29.2 33.9 24.3 75 3.4 WSW 7 13 4 7 1006.4 1006.3 0.0
13/08:00pm 29.3 33.8 24.0 73 3.7 WSW 7 15 4 8 1005.9 1005.8 0.0
13/07:30pm 29.5 34.2 23.9 72 3.9 W 6 11 3 6 1005.1 1005.0 0.0
13/07:00pm 29.7 34.5 24.1 72 3.9 W 6 15 3 8 1004.9 1004.8 0.0
13/06:30pm 29.8 34.3 24.0 71 4.0 WSW 7 20 4 11 1004.5 1004.4 0.0
13/06:00pm 30.2 34.4 24.1 70 4.3 W 9 26 5 14 1004.6 1004.5 0.0
13/05:30pm 30.4 34.1 23.3 66 4.9 W 9 20 5 11 1004.4 1004.3 0.0
13/05:00pm 31.8 35.9 23.9 63 5.5 W 9 19 5 10 1003.8 1003.7 0.0
13/04:30pm 31.9 35.4 24.2 63 5.4 WNW 13 20 7 11 1003.8 1003.7 0.0
13/04:00pm 32.5 36.8 24.3 62 5.7 WNW 9 20 5 11 1003.7 1003.6 0.0
13/03:30pm 33.1 37.2 24.0 59 6.4 W 9 19 5 10 1003.7 1003.6 0.0
13/03:00pm 34.1 38.2 23.2 53 7.6 W 7 17 4 9 1004.0 1003.9 0.0
13/02:30pm 33.6 35.9 22.1 51 7.9 W 13 24 7 13 1004.3 1004.2 0.0
13/02:00pm 33.5 36.8 23.2 54 7.1 W 11 22 6 12 1004.6 1004.5 0.0
13/01:30pm 33.0 36.1 23.6 57 6.6 W 13 28 7 15 1005.0 1004.9 0.0
13/01:00pm 32.8 35.8 23.4 57 6.5 WNW 13 26 7 14 1005.5 1005.4 0.0

Other Formats:

Comma delimited format used in spreadsheet applications
http://www.bom.gov.au/fwo/IDD60801/IDD60801.94119.axf

JavaScript Object Notation format (JSON) in row-major order
http://www.bom.gov.au/fwo/IDD60801/IDD60801.94119.json